x

Middle Nomad (46004) Wave Buoy

2:00am - Mon 25th May 2015 All times are PDT. -7 hours from GMT.

  • Sig Wave height 4.3ft
  • Peak Period 10s
  • Wind
    9mph
  • Sea Temp 54°f
  • Air Temp 53°f
  • Sea Pressure 1022.4mb
  • Middle Nomad
  • Middle Nomad

More Historic Weather Station data

Upgrade to MSW Pro to gain access to the past 30 days of data for over 8000 Wavebouys and Weather Stations around the globe.

Join Pro

Comparision Forecast

View Surf forecast
   
Mon 05/25 2:00am 4.5ft 10s 9
mph
1022.4mb 54f 53f
1:00am 4.5ft 8s 9
mph
1022.6mb 54f 53f
12:00am 4ft 10s 9
mph
1022.7mb 54f 54f
Sun 05/24 11:00pm 4ft 10s 7 9 mph 1022.7mb 54f 54f
10:00pm 3.5ft 10s 7
mph
1022.7mb 54f 54f
9:00pm 4ft 9s 7
mph
1022.6mb 54f 54f
8:00pm 4ft 10s 7 9 mph 1022.8mb 54f 54f
7:00pm 4.5ft 10s 9
mph
1023.1mb 54f 54f
6:00pm 4.5ft 10s 7
mph
1023.5mb 54f 54f
5:00pm 4.5ft 10s 7
mph
1024.1mb 54f 55f
4:00pm 4.5ft 10s 7 9 mph 1024.7mb 54f 54f
3:00pm 4.5ft 11s 4 7 mph 1025.2mb 54f 54f
2:00pm 5ft 10s 9 11 mph 1025.6mb 54f 53f
1:00pm 4.5ft 10s 7 9 mph 1025.9mb 54f 54f
12:00pm 5ft 10s 7
mph
1026.1mb 54f 54f
11:00am 5ft 11s 7 9 mph 1026.4mb 53f 53f
10:00am 4.5ft 11s 7 9 mph 1026.7mb 53f 53f
9:00am 4.5ft 11s 7 9 mph 1026.7mb 53f 53f
8:00am 4ft 11s 9 11 mph 1027mb 53f 53f
7:00am 4.5ft 11s 9 11 mph 1027.2mb 53f 52f
6:00am 4.5ft 11s 11 13 mph 1027.2mb 53f 52f
5:00am 5ft 11s 9 11 mph 1027.1mb 53f 53f
4:00am 5ft 11s 11 13 mph 1027.4mb 53f 52f
3:00am 5ft 11s 7 9 mph 1027.6mb 53f 52f
2:00am 5.5ft 11s 9 11 mph 1027.8mb 53f 52f
1:00am 6ft 11s 9 11 mph 1028.1mb 53f 51f
12:00am 6ft 10s 7 9 mph 1028mb 53f 51f
Sat 05/23 11:00pm 6ft 11s 9 13 mph 1028.2mb 53f 52f
10:00pm 5.5ft 10s 9 11 mph 1028mb 53f 52f
9:00pm 5ft 12s 9 13 mph 1027.8mb 53f 53f
8:00pm 5ft 12s 13 16 mph 1027.6mb 53f 53f
7:00pm 5ft 12s 9 13 mph 1027.6mb 53f 53f
6:00pm 5ft 11s 9 11 mph 1027.5mb 54f 53f
5:00pm 5ft 12s 9 11 mph 1027.6mb 53f 53f
4:00pm 5ft 12s 11 13 mph 1027.8mb 54f 53f
3:00pm 5ft 11s 7 9 mph 1027.8mb 53f 54f
2:00pm 5ft 11s 9 11 mph 1027.8mb 53f 53f
1:00pm 5.5ft 11s 9 11 mph 1027.9mb 53f 53f
12:00pm 6ft 11s 4 7 mph 1027.8mb 53f 53f
11:00am 6ft 11s 2 4 mph 1027.7mb 53f 53f
10:00am 6ft 8s 4
mph
1027.7mb 52f 53f
9:00am 6ft 10s 4 7 mph 1027.5mb 52f 52f
8:00am 5ft 11s 9
mph
1027mb 52f 52f
7:00am 6ft 11s 11 16 mph 1026.3mb 52f 52f
6:00am 6ft 11s 13 18 mph 1026.2mb 52f 52f
5:00am 6ft 12s 13 18 mph 1026.1mb 52f 52f
4:00am 6ft 12s 16 18 mph 1026.2mb 52f 52f
3:00am 6.5ft 11s 16 18 mph 1026.3mb 52f 52f
2:00am 7ft 12s 13 18 mph 1026.4mb 52f 52f
1:00am 7ft 11s 13 18 mph 1026.2mb 52f 52f
Fri 05/22 11:00pm 7.5ft 11s 18 22 mph 1025.8mb 52f 52f
10:00pm 7.5ft 12s 18 25 mph 1025.6mb 52f 52f
9:00pm 7.5ft 12s 20 27 mph 1025.2mb 52f 52f
8:00pm 7ft 12s 20 25 mph 1025mb 52f 52f
7:00pm 7ft 9s 20 22 mph 1025.2mb 52f 51f
6:00pm 7ft 10s 18 22 mph 1025.1mb 52f 51f
5:00pm 6.5ft 8s 18 22 mph 1025mb 53f 52f
3:00pm 6.5ft 8s 18 20 mph 1025.1mb 52f 52f
2:00pm 6.5ft 12s 18 22 mph 1025mb 52f 51f
1:00pm 7ft 7s 13 16 mph 1025.1mb 52f 51f
12:00pm 7ft 13s 16 18 mph 1025.1mb 52f 51f
11:00am 7ft 10s 16 22 mph 1025mb 52f 50f
10:00am 7ft 10s 18 22 mph 1024.7mb 52f 50f
9:00am 7ft 8s 18 22 mph 1024.6mb 52f 50f
7:00am 6.5ft 14s 20 25 mph 1024.1mb 53f 49f
6:00am 6ft 11s 18 25 mph 1023.8mb 53f 50f
5:00am 6ft 10s 18 22 mph 1023.7mb 53f 50f
4:00am 5.5ft 8s 18 22 mph 1023.8mb 53f 50f
3:00am 6ft 7s 18 22 mph 1023.7mb 53f 50f
1:00am 6ft 8s 16 20 mph 1023.8mb 53f 50f
12:00am 6ft 7s 16 20 mph 1023.8mb 53f 50f
Thu 05/21 11:00pm 6ft 7s 18 25 mph 1023.5mb 53f 50f
10:00pm 5.5ft 7s 18 22 mph 1023mb 53f 50f
9:00pm 6ft 7s 18 22 mph 1022.7mb 53f 50f
8:00pm 5ft 6s 18 22 mph 1022.7mb 53f 50f
7:00pm 5ft 7s 18 20 mph 1022.7mb 53f 51f
6:00pm 5ft 8s 18 20 mph 1022.9mb 53f 51f
5:00pm 5ft 7s 18 22 mph 1023.1mb 53f 51f
4:00pm 5ft 7s 18 20 mph 1023.2mb 53f 50f
3:00pm 5ft 9s 16 20 mph 1023.1mb 53f 50f
2:00pm  -   -  16
mph
1023.1mb - 50f
1:00pm 5.5ft 9s 16 20 mph 1023.1mb 53f 50f
12:00pm 6ft 10s 18 22 mph 1023mb 53f 50f
11:00am 6ft 10s 18 20 mph 1023mb 53f 50f